Time;durP1;ratioP1;P1;durP2;ratioP2;P2;SDS_P1;SDS_P2;PMS_P1;PMS_P2;Temp;Humidity;BMP_temperature;BMP_pressure;BME280_temperature;BME280_humidity;BME280_pressure;Samples;Min_cycle;Max_cycle;Signal;HPM_P1;HPM_P2
2022/03/24 00:02:06;;;;;;;43.30;35.30;;;8.10;97.70;;;;;;5126599;27;20130;-82
2022/03/24 00:04:32;;;;;;;48.30;35.45;;;8.10;97.50;;;;;;5140390;27;20043;-81
2022/03/24 00:06:58;;;;;;;46.20;35.75;;;8.00;97.40;;;;;;5142039;27;20042;-82
2022/03/24 00:09:24;;;;;;;45.22;35.03;;;8.00;97.40;;;;;;5126741;27;20780;-81
2022/03/24 00:11:50;;;;;;;45.53;36.05;;;7.90;97.40;;;;;;5140891;27;20047;-81
2022/03/24 00:14:17;;;;;;;52.63;38.30;;;7.90;98.10;;;;;;5116323;27;20043;-81
2022/03/24 00:16:43;;;;;;;47.15;37.80;;;7.80;98.40;;;;;;5150308;27;20042;-81
2022/03/24 00:19:09;;;;;;;46.92;36.78;;;7.80;98.50;;;;;;5140858;27;20038;-82
2022/03/24 00:21:36;;;;;;;47.40;37.15;;;7.80;99.30;;;;;;5127014;27;20042;-81
2022/03/24 00:24:02;;;;;;;52.47;39.10;;;7.80;99.90;;;;;;5133309;27;20104;-82
2022/03/24 00:26:27;;;;;;;48.97;38.70;;;7.80;99.80;;;;;;5127123;27;20050;-82
2022/03/24 00:28:53;;;;;;;46.75;38.50;;;7.80;99.70;;;;;;5141898;27;20053;-81
2022/03/24 00:31:19;;;;;;;46.80;38.15;;;7.80;98.80;;;;;;5148750;27;20078;-82
2022/03/24 00:33:45;;;;;;;45.78;36.97;;;7.80;98.60;;;;;;5149117;27;20446;-82
2022/03/24 00:36:11;;;;;;;49.25;38.72;;;7.80;98.90;;;;;;5120769;27;20472;-81
2022/03/24 00:38:38;;;;;;;49.28;37.97;;;7.70;99.40;;;;;;5149255;27;20038;-81
2022/03/24 00:41:06;;;;;;;46.50;38.03;;;7.70;99.80;;;;;;5140248;27;20457;-82
2022/03/24 00:43:32;;;;;;;48.40;38.67;;;7.70;99.90;;;;;;5137993;27;20081;-81
2022/03/24 00:45:59;;;;;;;47.13;40.15;;;7.70;99.90;;;;;;5120483;27;20039;-82
2022/03/24 00:48:25;;;;;;;50.22;39.53;;;7.70;99.90;;;;;;5127173;27;20448;-82
2022/03/24 00:50:51;;;;;;;44.30;38.38;;;7.70;99.90;;;;;;5141598;27;20084;-82
2022/03/24 00:53:18;;;;;;;47.55;38.58;;;7.70;99.90;;;;;;5123179;27;20053;-82
2022/03/24 00:55:44;;;;;;;48.25;38.47;;;7.60;99.90;;;;;;5147275;27;20062;-82
2022/03/24 00:58:10;;;;;;;51.65;39.60;;;7.60;99.90;;;;;;5137730;27;20511;-82
2022/03/24 01:00:37;;;;;;;46.83;38.88;;;7.50;99.90;;;;;;5125629;27;20043;-82
2022/03/24 01:03:06;;;;;;;49.17;38.88;;;7.40;99.90;;;;;;5130070;27;20055;-82
2022/03/24 01:05:34;;;;;;;51.30;39.97;;;7.40;99.90;;;;;;5140390;27;20386;-82
2022/03/24 01:08:00;;;;;;;53.92;39.15;;;7.30;99.90;;;;;;5121543;27;20042;-82
2022/03/24 01:10:26;;;;;;;51.22;39.80;;;7.30;99.90;;;;;;5152658;27;20050;-82
2022/03/24 01:12:59;;;;;;;48.55;39.50;;;7.20;99.90;;;;;;5141430;27;20035;-81
2022/03/24 01:15:26;;;;;;;47.55;38.35;;;7.20;99.90;;;;;;5122674;27;20039;-82
2022/03/24 01:17:58;;;;;;;;;;;7.20;99.90;;;;;;5138915;27;20740;-83
2022/03/24 01:20:24;;;;;;;45.03;38.45;;;7.10;99.90;;;;;;5143745;27;20329;-84
2022/03/24 01:22:49;;;;;;;53.67;40.20;;;7.00;99.90;;;;;;5134951;27;20077;-84
2022/03/24 01:25:16;;;;;;;48.85;40.45;;;7.00;99.90;;;;;;5120352;27;20099;-83
2022/03/24 01:27:42;;;;;;;51.53;40.08;;;7.00;99.90;;;;;;5140859;27;20055;-81
2022/03/24 01:30:09;;;;;;;47.38;40.38;;;7.00;99.90;;;;;;5142089;27;20046;-82
2022/03/24 01:32:35;;;;;;;47.87;38.40;;;6.90;99.90;;;;;;5148159;27;20038;-82
2022/03/24 01:35:02;;;;;;;47.67;39.78;;;6.80;99.90;;;;;;5140950;27;20031;-82
2022/03/24 01:37:28;;;;;;;49.83;40.17;;;6.80;99.90;;;;;;5137354;27;20047;-82
2022/03/24 01:39:54;;;;;;;51.88;40.95;;;6.80;99.90;;;;;;5114224;27;20066;-81
2022/03/24 01:42:20;;;;;;;50.88;41.53;;;6.70;99.90;;;;;;5123581;27;20401;-82
2022/03/24 01:44:47;;;;;;;47.53;41.15;;;6.70;99.90;;;;;;5111050;27;20036;-82
2022/03/24 01:47:14;;;;;;;50.97;39.83;;;6.70;99.90;;;;;;5115388;27;20050;-82
2022/03/24 01:49:42;;;;;;;49.90;41.08;;;6.60;99.90;;;;;;5125542;27;20038;-82
2022/03/24 01:52:10;;;;;;;56.67;44.33;;;6.60;99.90;;;;;;5119468;27;20046;-81
2022/03/24 01:54:40;;;;;;;53.72;43.55;;;6.50;99.90;;;;;;5115980;27;20516;-82
2022/03/24 01:57:08;;;;;;;56.33;42.95;;;6.50;99.90;;;;;;5119117;27;20390;-83
2022/03/24 01:59:36;;;;;;;56.25;43.97;;;6.50;99.90;;;;;;5126012;27;20047;-82
2022/03/24 02:02:02;;;;;;;53.25;43.35;;;6.50;99.90;;;;;;5148229;27;20109;-82
2022/03/24 02:04:28;;;;;;;50.63;43.83;;;6.50;99.90;;;;;;5137435;27;20496;-83
2022/03/24 02:06:54;;;;;;;56.45;43.13;;;6.40;99.90;;;;;;5121166;27;20043;-82
2022/03/24 02:09:20;;;;;;;58.13;43.03;;;6.40;99.90;;;;;;5128942;27;20041;-83
2022/03/24 02:11:46;;;;;;;51.45;41.92;;;6.40;99.90;;;;;;5143920;27;20095;-82
2022/03/24 02:14:11;;;;;;;54.45;43.95;;;6.40;99.90;;;;;;5120646;27;20043;-82
2022/03/24 02:16:39;;;;;;;58.78;45.25;;;6.30;99.90;;;;;;5129841;27;20125;-82
2022/03/24 02:19:12;;;;;;;56.40;43.72;;;6.30;99.90;;;;;;5154731;27;20114;-83
2022/03/24 02:21:39;;;;;;;57.72;44.63;;;6.20;99.90;;;;;;5148458;27;20100;-83
2022/03/24 02:24:05;;;;;;;57.80;43.92;;;6.20;99.90;;;;;;5125948;27;20039;-82
2022/03/24 02:26:31;;;;;;;56.42;44.47;;;6.20;99.90;;;;;;5114078;27;20383;-83
2022/03/24 02:28:57;;;;;;;55.75;44.75;;;6.20;99.90;;;;;;5150006;27;20161;-82
2022/03/24 02:31:23;;;;;;;55.00;44.47;;;6.10;99.90;;;;;;5142829;27;20051;-83
2022/03/24 02:34:37;;;;;;;55.25;46.92;;;6.10;99.90;;;;;;5134996;27;20039;-83
2022/03/24 02:36:39;;;;;;;58.92;44.40;;;6.10;99.90;;;;;;5148243;27;20507;-83
2022/03/24 02:39:06;;;;;;;57.50;43.55;;;6.00;99.90;;;;;;5135324;27;20449;-83
2022/03/24 02:41:32;;;;;;;59.50;46.03;;;6.00;99.90;;;;;;5133526;27;20419;-82
2022/03/24 02:43:58;;;;;;;60.35;47.22;;;6.00;99.90;;;;;;5151317;27;20046;-83
2022/03/24 02:46:26;;;;;;;55.65;45.22;;;6.10;99.90;;;;;;5139558;27;20073;-82
2022/03/24 02:48:51;;;;;;;56.08;44.63;;;6.10;99.90;;;;;;5129840;27;20942;-83
2022/03/24 02:51:17;;;;;;;63.38;47.75;;;6.00;99.90;;;;;;5135645;27;20043;-82
2022/03/24 02:53:43;;;;;;;54.95;45.47;;;6.00;99.90;;;;;;5143255;27;20505;-82
2022/03/24 02:56:08;;;;;;;53.25;44.60;;;6.00;99.90;;;;;;5130740;27;20039;-82
2022/03/24 02:58:34;;;;;;;58.25;46.15;;;5.90;99.90;;;;;;5126721;27;20070;-82
2022/03/24 03:00:59;;;;;;;60.95;49.28;;;5.80;99.90;;;;;;5116445;27;20390;-83
2022/03/24 03:03:25;;;;;;;57.00;46.97;;;5.70;99.90;;;;;;5126113;27;20037;-83
2022/03/24 03:05:51;;;;;;;60.70;47.97;;;5.70;99.90;;;;;;5142048;27;20039;-83
2022/03/24 03:08:19;;;;;;;60.35;46.90;;;5.70;99.90;;;;;;5137709;27;20417;-83
2022/03/24 03:10:44;;;;;;;58.28;47.60;;;5.70;99.90;;;;;;5151366;27;20039;-83
2022/03/24 03:13:10;;;;;;;58.88;46.83;;;5.70;99.90;;;;;;5149263;27;20540;-82
2022/03/24 03:15:36;;;;;;;55.80;46.40;;;5.60;99.90;;;;;;5138184;27;20038;-83
2022/03/24 03:18:05;;;;;;;60.30;47.88;;;5.60;99.90;;;;;;5126888;27;20409;-83
2022/03/24 03:20:30;;;;;;;64.75;47.95;;;5.50;99.90;;;;;;5130889;27;20047;-83
2022/03/24 03:22:56;;;;;;;58.55;47.72;;;5.40;99.90;;;;;;5139183;27;20053;-83
2022/03/24 03:25:22;;;;;;;57.67;45.83;;;5.50;99.90;;;;;;5140857;27;20051;-82
2022/03/24 03:27:48;;;;;;;56.67;48.88;;;5.40;99.90;;;;;;5151339;27;20050;-83
2022/03/24 03:30:14;;;;;;;56.90;48.03;;;5.50;99.90;;;;;;5142005;27;20041;-82
2022/03/24 03:32:41;;;;;;;60.92;49.08;;;5.50;99.90;;;;;;5121391;27;20043;-82
2022/03/24 03:35:08;;;;;;;62.95;49.40;;;5.40;99.90;;;;;;5155915;27;20035;-83
2022/03/24 03:37:33;;;;;;;62.88;50.38;;;5.50;99.90;;;;;;5128178;27;20571;-83
2022/03/24 03:39:59;;;;;;;61.00;49.50;;;5.50;99.90;;;;;;5118082;27;20042;-82
2022/03/24 03:42:25;;;;;;;58.55;47.83;;;5.40;99.90;;;;;;5148012;27;20064;-82
2022/03/24 03:44:50;;;;;;;60.25;48.65;;;5.50;99.90;;;;;;5162720;27;20035;-82
2022/03/24 03:47:17;;;;;;;60.08;49.33;;;5.50;99.90;;;;;;5132735;27;20046;-82
2022/03/24 03:49:43;;;;;;;63.63;48.10;;;5.50;99.90;;;;;;5131837;27;20053;-82
2022/03/24 03:52:08;;;;;;;67.97;52.10;;;5.50;99.90;;;;;;5118439;27;20051;-82
2022/03/24 03:54:34;;;;;;;61.63;50.30;;;5.50;99.90;;;;;;5140856;27;20035;-82
2022/03/24 03:57:00;;;;;;;66.15;51.25;;;5.50;99.90;;;;;;5119445;27;20540;-82
2022/03/24 03:59:26;;;;;;;58.70;49.20;;;5.50;99.90;;;;;;5124703;27;20061;-82
2022/03/24 04:01:53;;;;;;;61.83;46.13;;;5.50;99.90;;;;;;5116153;27;20114;-82
2022/03/24 04:04:19;;;;;;;62.30;50.15;;;5.50;99.90;;;;;;5132762;27;20054;-83
2022/03/24 04:06:45;;;;;;;65.45;49.13;;;5.50;99.90;;;;;;5125439;27;20042;-82
2022/03/24 04:09:11;;;;;;;65.70;49.63;;;5.40;99.90;;;;;;5130885;27;20188;-82
2022/03/24 04:11:37;;;;;;;57.60;48.33;;;5.40;99.90;;;;;;5147025;27;20129;-82
2022/03/24 04:14:03;;;;;;;60.85;49.58;;;5.30;99.90;;;;;;5123951;27;20103;-82
2022/03/24 04:16:29;;;;;;;62.30;49.33;;;5.20;99.90;;;;;;5142347;27;20100;-83
2022/03/24 04:18:55;;;;;;;61.33;50.53;;;5.10;99.90;;;;;;5118867;27;20149;-82
2022/03/24 04:21:20;;;;;;;53.47;45.72;;;5.10;99.90;;;;;;5143325;27;20492;-83
2022/03/24 04:23:46;;;;;;;61.83;46.33;;;5.10;99.90;;;;;;5116643;27;20046;-82
2022/03/24 04:26:12;;;;;;;58.42;47.15;;;5.10;99.90;;;;;;5127429;27;20054;-82
2022/03/24 04:28:39;;;;;;;62.95;49.30;;;5.00;99.90;;;;;;5131501;27;20051;-83
2022/03/24 04:31:04;;;;;;;61.70;51.03;;;5.00;99.90;;;;;;5153806;27;20118;-82
2022/03/24 04:33:31;;;;;;;66.57;51.05;;;5.00;99.90;;;;;;5145659;27;20432;-83
2022/03/24 04:36:00;;;;;;;64.25;51.95;;;5.00;99.90;;;;;;5128155;27;20058;-82
2022/03/24 04:38:26;;;;;;;63.97;48.97;;;5.00;99.90;;;;;;5130653;27;20031;-82
2022/03/24 04:40:56;;;;;;;66.15;52.55;;;5.00;99.90;;;;;;5120916;27;20065;-82
2022/03/24 04:43:22;;;;;;;69.97;48.35;;;5.00;99.90;;;;;;5147743;27;20043;-83
2022/03/24 04:45:48;;;;;;;64.35;50.47;;;5.00;99.90;;;;;;5133030;27;20049;-83
2022/03/24 04:48:13;;;;;;;62.33;47.67;;;5.00;99.90;;;;;;5150580;27;20038;-83
2022/03/24 04:50:39;;;;;;;61.65;46.30;;;5.00;99.90;;;;;;5141012;27;20037;-83
2022/03/24 04:53:05;;;;;;;62.45;50.97;;;5.00;99.90;;;;;;5155447;27;20044;-82
2022/03/24 04:55:31;;;;;;;66.63;50.78;;;4.90;99.90;;;;;;5149639;27;20485;-82
2022/03/24 04:57:57;;;;;;;67.53;51.70;;;4.90;99.90;;;;;;5142455;27;20030;-82
2022/03/24 05:00:22;;;;;;;60.15;47.25;;;5.00;99.90;;;;;;5118741;27;20069;-82
2022/03/24 05:02:48;;;;;;;60.85;50.00;;;5.00;99.90;;;;;;5130050;27;20039;-82
2022/03/24 05:05:15;;;;;;;69.10;48.30;;;4.90;99.90;;;;;;5140677;27;20069;-83
2022/03/24 05:07:41;;;;;;;63.58;51.55;;;4.80;99.90;;;;;;5146216;27;20042;-82
2022/03/24 05:10:08;;;;;;;70.93;50.10;;;4.80;99.90;;;;;;5130456;27;20664;-82
2022/03/24 05:12:36;;;;;;;58.80;49.30;;;4.70;99.90;;;;;;5134049;27;20082;-82
2022/03/24 05:15:01;;;;;;;58.15;48.60;;;4.70;99.90;;;;;;5135287;27;20031;-83
2022/03/24 05:17:27;;;;;;;61.00;47.40;;;4.70;99.90;;;;;;5133458;27;20106;-82
2022/03/24 05:19:53;;;;;;;64.93;50.03;;;4.60;99.90;;;;;;5128343;27;22181;-82
2022/03/24 05:22:19;;;;;;;65.18;49.05;;;4.60;99.90;;;;;;5143652;27;20049;-82
2022/03/24 05:24:48;;;;;;;72.10;54.33;;;4.60;99.90;;;;;;5147356;27;20035;-83
2022/03/24 05:27:13;;;;;;;66.30;51.40;;;4.60;99.90;;;;;;5118814;27;20054;-82
2022/03/24 05:29:39;;;;;;;69.03;54.28;;;4.60;99.90;;;;;;5147422;27;20389;-82
2022/03/24 05:32:05;;;;;;;68.97;54.22;;;4.60;99.90;;;;;;5149387;27;20043;-82
2022/03/24 05:34:32;;;;;;;68.93;52.75;;;4.70;99.90;;;;;;5145149;27;20042;-82
2022/03/24 05:36:58;;;;;;;72.03;55.47;;;4.70;99.90;;;;;;5148656;27;20061;-82
2022/03/24 05:39:24;;;;;;;70.32;53.70;;;4.80;99.90;;;;;;5120037;27;20039;-82
2022/03/24 05:41:50;;;;;;;67.03;52.95;;;4.80;99.90;;;;;;5140538;27;20401;-82
2022/03/24 05:44:15;;;;;;;67.90;50.78;;;4.80;99.90;;;;;;5128980;27;20057;-82
2022/03/24 05:46:44;;;;;;;69.07;51.25;;;4.80;99.90;;;;;;5147291;27;20046;-82
2022/03/24 05:49:14;;;;;;;64.15;51.53;;;4.80;99.90;;;;;;5136927;27;20508;-82
2022/03/24 05:51:42;;;;;;;67.88;53.85;;;4.90;99.90;;;;;;5138459;27;20074;-82
2022/03/24 05:54:09;;;;;;;67.13;52.83;;;4.80;99.90;;;;;;5140571;27;20054;-82
2022/03/24 05:56:35;;;;;;;71.00;51.78;;;4.80;99.90;;;;;;5150777;27;20035;-83
2022/03/24 05:59:01;;;;;;;68.75;54.20;;;4.80;99.90;;;;;;5113873;27;20053;-82
2022/03/24 06:01:26;;;;;;;68.32;51.22;;;4.90;99.90;;;;;;5137356;27;20393;-83
2022/03/24 06:03:52;;;;;;;67.60;52.40;;;4.90;99.90;;;;;;5137639;27;20524;-82
2022/03/24 06:06:20;;;;;;;66.90;51.63;;;4.90;99.90;;;;;;5128172;27;20508;-84
2022/03/24 06:08:47;;;;;;;62.28;51.05;;;5.00;99.90;;;;;;5114158;27;20531;-84
2022/03/24 06:11:13;;;;;;;63.88;51.30;;;5.10;99.90;;;;;;5133249;27;20050;-84
2022/03/24 06:13:40;;;;;;;67.72;49.50;;;5.10;99.90;;;;;;5149357;27;20116;-84
2022/03/24 06:16:06;;;;;;;64.17;52.20;;;5.10;99.90;;;;;;5140195;27;20099;-84
2022/03/24 06:18:32;;;;;;;65.47;51.20;;;5.10;99.90;;;;;;5151226;27;20340;-84
2022/03/24 06:20:59;;;;;;;62.95;51.20;;;5.20;99.90;;;;;;5151737;27;20105;-84
2022/03/24 06:23:25;;;;;;;62.40;50.47;;;5.20;99.90;;;;;;5116650;27;20046;-84
2022/03/24 06:25:51;;;;;;;57.55;48.97;;;5.30;99.90;;;;;;5133303;27;20345;-84
2022/03/24 06:28:17;;;;;;;63.47;49.83;;;5.30;99.90;;;;;;5134963;27;20043;-77
2022/03/24 06:30:42;;;;;;;67.45;51.83;;;5.30;99.90;;;;;;5142572;27;20465;-81
2022/03/24 06:33:09;;;;;;;63.40;51.10;;;5.40;99.90;;;;;;5127428;27;20576;-84
2022/03/24 06:35:34;;;;;;;64.25;51.67;;;5.40;99.90;;;;;;5139932;27;20041;-84
2022/03/24 06:38:00;;;;;;;59.13;48.95;;;5.50;99.90;;;;;;5123061;27;20035;-84
2022/03/24 06:40:26;;;;;;;63.17;51.33;;;5.60;99.90;;;;;;5115884;27;20137;-84
2022/03/24 06:42:52;;;;;;;68.32;53.20;;;5.60;99.90;;;;;;5130778;27;20054;-83
2022/03/24 06:45:24;;;;;;;64.93;52.28;;;5.70;99.90;;;;;;5131032;27;20507;-83
2022/03/24 06:47:50;;;;;;;67.50;53.00;;;5.90;99.90;;;;;;5133522;27;20043;-83
2022/03/24 06:50:15;;;;;;;64.55;51.17;;;6.00;99.90;;;;;;5146513;27;20054;-84
2022/03/24 06:52:42;;;;;;;65.38;51.38;;;6.20;99.90;;;;;;5134281;27;20039;-85
2022/03/24 06:55:08;;;;;;;65.43;51.72;;;6.30;99.90;;;;;;5145375;27;20734;-82
2022/03/24 06:57:36;;;;;;;68.90;53.47;;;6.40;99.90;;;;;;5134896;27;20042;-82
2022/03/24 07:00:03;;;;;;;63.97;52.97;;;6.50;99.90;;;;;;5140867;27;20057;-83
2022/03/24 07:02:29;;;;;;;;;;;6.60;99.90;;;;;;5145483;27;20074;-82
2022/03/24 07:04:54;;;;;;;68.20;52.90;;;6.60;99.90;;;;;;5148878;27;19988;-83
2022/03/24 07:07:20;;;;;;;63.40;52.22;;;6.70;99.90;;;;;;5160320;27;20042;-82
2022/03/24 07:09:46;;;;;;;66.32;51.35;;;6.80;99.90;;;;;;5147958;27;20421;-82
2022/03/24 07:12:11;;;;;;;64.90;50.17;;;6.90;99.90;;;;;;5140812;27;20442;-82
2022/03/24 07:14:37;;;;;;;65.53;50.25;;;6.90;99.90;;;;;;5121026;27;20054;-82
2022/03/24 07:17:04;;;;;;;63.45;50.42;;;7.10;99.90;;;;;;5141912;27;20406;-82
2022/03/24 07:19:30;;;;;;;61.70;50.43;;;7.10;99.90;;;;;;5113558;27;20053;-82
2022/03/24 07:21:55;;;;;;;62.15;50.53;;;7.20;99.90;;;;;;5137168;27;20035;-82
2022/03/24 07:24:21;;;;;;;64.57;49.80;;;7.30;99.90;;;;;;5128129;27;20038;-83
2022/03/24 07:26:46;;;;;;;64.18;50.60;;;7.40;99.90;;;;;;5114982;27;20134;-82
2022/03/24 07:29:12;;;;;;;58.35;49.15;;;7.40;99.90;;;;;;5146743;27;20051;-82
2022/03/24 07:31:38;;;;;;;64.35;49.53;;;7.50;99.90;;;;;;5148196;27;20049;-82
2022/03/24 07:34:04;;;;;;;58.17;47.30;;;7.60;99.90;;;;;;5143733;27;20126;-80
2022/03/24 07:36:30;;;;;;;56.47;47.47;;;7.70;99.90;;;;;;5130925;27;20397;-80
2022/03/24 07:38:58;;;;;;;58.72;46.53;;;7.70;99.90;;;;;;5120292;27;20043;-80
2022/03/24 07:41:25;;;;;;;60.45;48.50;;;7.80;99.90;;;;;;5150381;27;20054;-79
2022/03/24 07:43:50;;;;;;;61.70;48.08;;;7.90;99.90;;;;;;5141434;27;20066;-80
2022/03/24 07:46:17;;;;;;;59.05;46.75;;;8.00;99.90;;;;;;5113150;27;20446;-79
2022/03/24 07:48:46;;;;;;;63.03;47.03;;;8.00;99.90;;;;;;5144612;27;20042;-79
2022/03/24 07:51:13;;;;;;;56.85;46.45;;;8.10;99.90;;;;;;5151271;27;20091;-82
2022/03/24 07:53:48;;;;;;;56.58;46.63;;;8.20;99.90;;;;;;5153325;27;20047;-82
2022/03/24 07:56:14;;;;;;;57.10;46.75;;;8.30;99.90;;;;;;5136397;27;20484;-83
2022/03/24 07:58:40;;;;;;;61.55;47.20;;;8.40;99.90;;;;;;5121069;27;20075;-82
2022/03/24 08:01:06;;;;;;;55.58;44.97;;;8.40;99.90;;;;;;5137108;27;20053;-82
2022/03/24 08:03:33;;;;;;;62.50;47.73;;;8.50;99.90;;;;;;5121023;27;20486;-82
2022/03/24 08:05:59;;;;;;;56.83;43.03;;;8.60;99.90;;;;;;5144540;27;20114;-82
2022/03/24 08:08:26;;;;;;;58.67;44.20;;;8.70;99.90;;;;;;5123483;27;20057;-84
2022/03/24 08:10:53;;;;;;;54.85;43.25;;;8.80;99.90;;;;;;5126907;27;20046;-85
2022/03/24 08:13:21;;;;;;;54.08;43.38;;;8.90;99.90;;;;;;5133346;27;20098;-85
2022/03/24 08:15:47;;;;;;;;;;;8.90;99.90;;;;;;5129815;27;20114;-87
2022/03/24 08:18:14;;;;;;;51.17;42.13;;;9.00;99.90;;;;;;5155456;27;19963;-88
2022/03/24 08:20:42;;;;;;;54.78;44.00;;;9.10;99.90;;;;;;5154947;27;20049;-86
2022/03/24 08:23:09;;;;;;;53.22;40.25;;;9.20;99.90;;;;;;5129962;27;20046;-87
2022/03/24 08:25:36;;;;;;;54.38;42.92;;;9.30;99.90;;;;;;5136750;27;20038;-85
2022/03/24 08:28:02;;;;;;;60.10;43.92;;;9.30;99.90;;;;;;5130596;27;20123;-86
2022/03/24 08:30:28;;;;;;;57.88;45.25;;;9.40;99.90;;;;;;5145345;27;20091;-84
2022/03/24 08:32:54;;;;;;;53.72;42.15;;;9.50;99.90;;;;;;5138252;27;20039;-84
2022/03/24 08:35:20;;;;;;;51.42;41.95;;;9.60;99.90;;;;;;5135100;27;20134;-84
2022/03/24 08:37:47;;;;;;;52.72;43.90;;;9.70;99.90;;;;;;5120570;27;20114;-83
2022/03/24 08:40:13;;;;;;;52.95;40.28;;;9.70;99.90;;;;;;5139856;27;20038;-79
2022/03/24 08:42:41;;;;;;;57.08;43.80;;;9.80;99.90;;;;;;5131713;27;20442;-79
2022/03/24 08:45:10;;;;;;;53.55;41.00;;;9.90;99.90;;;;;;5150482;27;20042;-78
2022/03/24 08:47:36;;;;;;;53.13;41.95;;;10.00;99.90;;;;;;5132749;27;20061;-78
2022/03/24 08:50:06;;;;;;;50.78;42.65;;;10.10;99.90;;;;;;5141122;27;20035;-77
2022/03/24 08:52:33;;;;;;;53.20;41.60;;;10.20;99.90;;;;;;5129476;27;20047;-79
2022/03/24 08:54:58;;;;;;;49.67;40.42;;;10.30;98.10;;;;;;5154460;27;20471;-81
2022/03/24 08:57:28;;;;;;;53.33;40.55;;;10.30;97.00;;;;;;5172502;27;20121;-79
2022/03/24 08:59:55;;;;;;;50.17;39.30;;;10.40;96.30;;;;;;5161607;27;20057;-81
2022/03/24 09:02:21;;;;;;;49.72;40.25;;;10.50;96.60;;;;;;5153141;27;20050;-80
2022/03/24 09:04:50;;;;;;;48.92;38.00;;;10.60;96.10;;;;;;5132257;27;20034;-79
2022/03/24 09:07:16;;;;;;;47.10;37.55;;;10.60;94.40;;;;;;5143258;27;20047;-80
2022/03/24 09:09:45;;;;;;;48.38;37.42;;;10.70;92.70;;;;;;5134260;27;20104;-81
2022/03/24 09:12:12;;;;;;;46.17;35.85;;;10.80;89.90;;;;;;5141142;27;20043;-80
2022/03/24 09:14:38;;;;;;;48.13;36.35;;;10.90;88.70;;;;;;5122816;27;20098;-82
2022/03/24 09:17:04;;;;;;;45.85;36.88;;;11.00;86.70;;;;;;5144058;27;20042;-83
2022/03/24 09:19:30;;;;;;;46.65;37.72;;;11.10;87.20;;;;;;5124571;27;20047;-82
2022/03/24 09:21:56;;;;;;;50.63;36.65;;;11.20;85.00;;;;;;5113383;27;20035;-82
2022/03/24 09:24:21;;;;;;;48.13;36.00;;;11.30;85.70;;;;;;5126932;27;20051;-83
2022/03/24 09:26:50;;;;;;;44.63;35.53;;;11.40;82.20;;;;;;5147545;27;20509;-77
2022/03/24 09:29:17;;;;;;;43.88;35.75;;;11.50;81.00;;;;;;5140967;27;20129;-80
2022/03/24 09:31:43;;;;;;;45.03;36.92;;;11.60;79.80;;;;;;5128419;27;20155;-82
2022/03/24 09:34:09;;;;;;;47.67;35.23;;;11.70;80.00;;;;;;5159337;27;20042;-82
2022/03/24 09:36:35;;;;;;;45.95;35.50;;;11.80;78.70;;;;;;5171203;27;20039;-82
2022/03/24 09:39:03;;;;;;;42.00;35.10;;;11.90;75.70;;;;;;5171622;27;20476;-83
2022/03/24 09:41:30;;;;;;;;;;;12.00;75.10;;;;;;5147180;27;20042;-82
2022/03/24 09:43:57;;;;;;;46.83;34.42;;;12.00;75.50;;;;;;5131561;27;19919;-82
2022/03/24 09:46:23;;;;;;;47.33;34.67;;;12.10;75.60;;;;;;5150666;27;20058;-83
2022/03/24 09:48:49;;;;;;;42.63;31.52;;;12.30;73.90;;;;;;5149820;27;20039;-82
2022/03/24 09:51:15;;;;;;;43.00;33.72;;;12.40;68.20;;;;;;5131064;27;20091;-83
2022/03/24 09:53:41;;;;;;;42.67;32.40;;;12.50;67.00;;;;;;5150795;27;20039;-82
2022/03/24 09:56:07;;;;;;;49.80;35.83;;;12.60;65.00;;;;;;5132038;27;20127;-83
2022/03/24 09:58:33;;;;;;;42.83;34.58;;;12.60;64.50;;;;;;5150109;27;20485;-83
2022/03/24 10:01:00;;;;;;;45.13;34.30;;;12.70;65.00;;;;;;5150203;27;20046;-78
2022/03/24 10:03:26;;;;;;;43.45;34.05;;;12.80;65.10;;;;;;5150055;27;20035;-79
2022/03/24 10:05:58;;;;;;;45.25;33.75;;;12.80;64.80;;;;;;5131572;27;20125;-78
2022/03/24 10:08:24;;;;;;;43.35;34.22;;;13.00;63.50;;;;;;5132213;27;20143;-78
2022/03/24 10:10:49;;;;;;;44.35;33.90;;;13.00;63.00;;;;;;5130611;27;20106;-79
2022/03/24 10:13:45;;;;;;;41.92;34.10;;;13.10;62.10;;;;;;5150072;27;20509;-79
2022/03/24 10:16:32;;;;;;;46.05;34.35;;;13.20;61.60;;;;;;5132472;27;20489;-76
2022/03/24 10:19:02;;;;;;;42.40;34.97;;;13.20;61.10;;;;;;5148932;27;20485;-76
2022/03/24 10:21:29;;;;;;;44.58;34.88;;;13.30;61.50;;;;;;5150288;27;20042;-79
2022/03/24 10:24:00;;;;;;;44.53;33.33;;;13.40;62.40;;;;;;5148583;27;20489;-76
2022/03/24 10:26:49;;;;;;;44.58;33.28;;;13.50;63.00;;;;;;5151377;27;20533;-77
2022/03/24 10:29:18;;;;;;;46.45;33.40;;;13.60;62.10;;;;;;5151125;27;20490;-77
2022/03/24 10:31:44;;;;;;;48.05;34.35;;;13.70;61.20;;;;;;5152812;27;20149;-76
2022/03/24 10:34:11;;;;;;;45.08;34.83;;;13.80;60.40;;;;;;5160237;27;20138;-83
2022/03/24 10:36:41;;;;;;;45.00;35.92;;;13.90;59.20;;;;;;5136029;27;20050;-81
2022/03/24 10:39:08;;;;;;;48.20;35.00;;;14.00;59.50;;;;;;5133812;27;20506;-75
2022/03/24 10:41:35;;;;;;;42.97;35.33;;;14.10;59.60;;;;;;5165663;27;20404;-79
2022/03/24 10:44:12;;;;;;;43.10;34.25;;;14.10;59.60;;;;;;5158146;27;20042;-79
2022/03/24 10:46:42;;;;;;;46.67;33.17;;;14.30;57.80;;;;;;5130497;27;20039;-80
2022/03/24 10:49:16;;;;;;;40.58;33.20;;;14.30;57.00;;;;;;5115537;27;20397;-79
2022/03/24 10:51:47;;;;;;;41.83;33.55;;;14.40;57.00;;;;;;5134308;27;20048;-79
2022/03/24 10:54:22;;;;;;;41.42;33.92;;;14.40;56.00;;;;;;5145106;27;20093;-79
2022/03/24 10:57:01;;;;;;;42.60;32.25;;;14.50;55.70;;;;;;5147488;27;20505;-79
2022/03/24 10:59:29;;;;;;;40.63;32.10;;;14.60;53.80;;;;;;5134989;27;20049;-79
2022/03/24 11:01:55;;;;;;;37.63;31.33;;;14.60;53.80;;;;;;5152037;27;20045;-79
2022/03/24 11:04:21;;;;;;;43.75;30.40;;;14.70;54.10;;;;;;5153875;27;20047;-79
2022/03/24 11:06:51;;;;;;;36.88;30.52;;;14.80;53.60;;;;;;5133347;27;20034;-79
2022/03/24 11:09:27;;;;;;;39.92;31.27;;;14.80;52.50;;;;;;5133975;27;20070;-79
2022/03/24 11:12:25;;;;;;;40.00;31.43;;;14.90;52.40;;;;;;5152984;27;20060;-81
2022/03/24 11:14:54;;;;;;;39.50;32.53;;;15.00;52.70;;;;;;5152518;27;20042;-78
2022/03/24 11:17:24;;;;;;;41.67;32.90;;;15.10;53.40;;;;;;5134449;27;20046;-78
2022/03/24 11:19:57;;;;;;;38.47;32.15;;;15.10;53.30;;;;;;5153333;27;20061;-78
2022/03/24 11:22:39;;;;;;;44.97;31.25;;;15.20;53.10;;;;;;5152416;27;20055;-78
2022/03/24 11:25:05;;;;;;;40.03;32.00;;;15.30;52.50;;;;;;5152517;27;20031;-78
2022/03/24 11:27:31;;;;;;;40.58;32.00;;;15.30;51.60;;;;;;5132306;27;20062;-77
2022/03/24 11:29:57;;;;;;;37.05;30.77;;;15.40;51.00;;;;;;5148699;27;20042;-77
2022/03/24 11:32:23;;;;;;;38.90;31.75;;;15.50;50.10;;;;;;5150219;27;20096;-77
2022/03/24 11:34:51;;;;;;;38.05;31.15;;;15.50;49.90;;;;;;5151651;27;20690;-77
2022/03/24 11:37:20;;;;;;;44.50;31.75;;;15.50;50.00;;;;;;5133981;27;20050;-77
2022/03/24 11:40:07;;;;;;;37.88;29.67;;;15.60;50.40;;;;;;5148857;27;20042;-77
2022/03/24 11:42:38;;;;;;;39.90;30.70;;;15.60;48.70;;;;;;5152556;27;20050;-79
2022/03/24 11:45:16;;;;;;;31.35;27.88;;;15.70;49.40;;;;;;5153801;27;20110;-80
2022/03/24 11:47:56;;;;;;;32.53;27.42;;;15.80;47.90;;;;;;5130602;27;20121;-81
2022/03/24 11:50:46;;;;;;;33.50;27.90;;;15.90;46.70;;;;;;5143611;27;20049;-84
2022/03/24 11:53:35;;;;;;;38.97;29.20;;;15.90;45.00;;;;;;5133951;27;20534;-81
2022/03/24 11:56:03;;;;;;;35.60;30.38;;;15.90;45.30;;;;;;5165221;27;20046;-82
2022/03/24 11:58:44;;;;;;;32.75;28.02;;;16.00;46.20;;;;;;5113241;27;20047;-84
2022/03/24 12:01:21;;;;;;;33.63;27.40;;;16.00;45.00;;;;;;5150175;27;20043;-82
2022/03/24 12:03:48;;;;;;;33.88;27.02;;;16.10;45.40;;;;;;5151547;27;20039;-82
2022/03/24 12:06:17;;;;;;;30.75;26.52;;;16.10;45.00;;;;;;5135373;27;20050;-90
2022/03/24 12:08:47;;;;;;;33.33;28.13;;;16.10;44.10;;;;;;5140858;27;20433;-90
2022/03/24 12:11:30;;;;;;;32.35;27.55;;;16.20;42.90;;;;;;5144657;27;20039;-80
2022/03/24 12:14:01;;;;;;;33.53;25.45;;;16.30;43.30;;;;;;5137093;27;20034;-85
2022/03/24 12:16:28;;;;;;;33.80;27.50;;;16.30;43.40;;;;;;5146870;27;20470;-86
2022/03/24 12:18:54;;;;;;;;;;;16.30;43.10;;;;;;5150569;27;20035;-85
2022/03/24 12:21:21;;;;;;;30.98;25.23;;;16.30;43.60;;;;;;5149720;27;20292;-84
2022/03/24 12:24:02;;;;;;;28.48;23.35;;;16.40;42.90;;;;;;5142152;27;20060;-85
2022/03/24 12:26:30;;;;;;;26.73;22.27;;;16.40;41.40;;;;;;5161521;27;20758;-86
2022/03/24 12:29:13;;;;;;;22.80;20.30;;;16.50;40.70;;;;;;5148576;27;20038;-85
2022/03/24 12:31:59;;;;;;;26.20;22.25;;;16.60;39.30;;;;;;5134787;27;20201;-84
2022/03/24 12:34:45;;;;;;;27.90;23.83;;;16.60;38.80;;;;;;5136315;27;20121;-85
2022/03/24 12:37:25;;;;;;;26.00;22.95;;;16.60;39.80;;;;;;5154464;27;20880;-84
2022/03/24 12:40:07;;;;;;;22.42;20.02;;;16.70;40.50;;;;;;5152660;27;20042;-83